This is the latest recevied weather packets stored in our database for station/object EA4URC-13. If no packets are shown the sender has not sent any weather packets the latest 10 day(s).
| Time | Temp. | Humidity | Pressure | Rain* | Wind** | Luminosity | Snow |
|---|---|---|---|---|---|---|---|
| 1777826611 | 16.67° C | 58% | 1002.5 hPa | - | - | - | - |
| 1777825711 | 18.33° C | 55% | 1001.8 hPa | - | - | - | - |
| 1777824811 | 17.22° C | 59% | 1002.2 hPa | - | - | - | - |
| 1777823911 | 17.78° C | 55% | 1001.9 hPa | - | - | - | - |
| 1777823011 | 17.78° C | 58% | 1001.9 hPa | - | - | - | - |
| 1777822111 | 16.11° C | 61% | 1002.9 hPa | - | - | - | - |
| 1777821211 | 15° C | 64% | 1003.4 hPa | - | - | - | - |
| 1777820436 | 16.11° C | 62% | 1003 hPa | - | - | - | - |
| 1777820311 | 16.11° C | 62% | 1003 hPa | - | - | - | - |
| 1777819411 | 15° C | 67% | 1003.6 hPa | - | - | - | - |
| 1777818511 | 15° C | 66% | 1003.8 hPa | - | - | - | - |
| 1777817611 | 13.89° C | 69% | 1004.6 hPa | - | - | - | - |
| 1777816711 | 13.33° C | 68% | 1004.9 hPa | - | - | - | - |
| 1777815811 | 13.89° C | 67% | 1004.9 hPa | - | - | - | - |
| 1777814911 | 13.33° C | 69% | 1005.2 hPa | - | - | - | - |
| 1777814011 | 15.56° C | 61% | 1004.1 hPa | - | - | - | - |
| 1777813111 | 16.67° C | 55% | 1003.6 hPa | - | - | - | - |
| 1777812211 | 18.33° C | 51% | 1003.1 hPa | - | - | - | - |
| 1777811311 | 17.78° C | 52% | 1003.3 hPa | - | - | - | - |
| 1777810411 | 16.67° C | 57% | 1004.1 hPa | - | - | - | - |
| 1777809511 | 16.67° C | 59% | 1004.2 hPa | - | - | - | - |
| 1777808611 | 15.56° C | 60% | 1004.9 hPa | - | - | - | - |
| 1777807711 | 15° C | 62% | 1005.3 hPa | - | - | - | - |
| 1777806811 | 13.89° C | 67% | 1006 hPa | - | - | - | - |
| 1777805903 | 12.22° C | 70% | 1007 hPa | - | - | - | - |
* Rain since midnight (hover to see other rain measurements)
** Current wind speed in m/s (hover to see current wind gust speed)